Time;durP1;ratioP1;P1;durP2;ratioP2;P2;SDS_P1;SDS_P2;PMS_P1;PMS_P2;Temp;Humidity;BMP_temperature;BMP_pressure;BME280_temperature;BME280_humidity;BME280_pressure;Samples;Min_cycle;Max_cycle;Signal;HPM_P1;HPM_P2
2023/07/06 00:01:05;;;;;;;16.70;4.80;;;;;;;-146.27;100.00;82625.25;5056305;28;20485;-70
2023/07/06 00:03:33;;;;;;;18.20;4.63;;;;;;;-146.27;100.00;82663.41;5052077;28;20464;-70
2023/07/06 00:05:59;;;;;;;14.20;3.92;;;;;;;-146.27;100.00;82625.25;5060306;28;20107;-70
2023/07/06 00:08:27;;;;;;;17.13;4.78;;;;;;;-146.27;100.00;82645.34;5075018;28;20039;-70
2023/07/06 00:10:53;;;;;;;12.23;4.05;;;;;;;-146.27;100.00;82645.34;5070172;28;20392;-70
2023/07/06 00:13:22;;;;;;;16.88;4.28;;;;;;;-146.27;100.00;82673.47;5067582;28;20031;-70
2023/07/06 00:15:48;;;;;;;18.83;4.03;;;;;;;-146.27;100.00;82595.13;5067278;28;20190;-69
2023/07/06 00:18:15;;;;;;;23.88;4.35;;;;;;;-146.27;100.00;82623.25;5057922;28;20028;-71
2023/07/06 00:20:40;;;;;;;16.95;4.40;;;;;;;-146.27;100.00;82605.16;5061424;28;20032;-71
2023/07/06 00:23:11;;;;;;;14.02;3.75;;;;;;;-146.27;100.00;82558.97;5058779;28;20104;-72
2023/07/06 00:25:37;;;;;;;15.68;4.60;;;;;;;-146.27;100.00;82637.31;5063294;28;20020;-71
2023/07/06 00:28:03;;;;;;;12.68;3.45;;;;;;;-146.27;100.00;82597.13;5063767;28;20130;-73
2023/07/06 00:30:53;;;;;;;12.40;3.50;;;;;;;-146.27;100.00;82621.22;5066502;28;20028;-72
2023/07/06 00:33:19;;;;;;;15.68;3.85;;;;;;;-146.27;100.00;82593.09;5071864;28;20498;-72
2023/07/06 00:35:46;;;;;;;14.23;4.40;;;;;;;-146.27;100.00;82564.97;5080295;28;20023;-71
2023/07/06 00:38:14;;;;;;;19.90;4.18;;;;;;;-146.27;100.00;82605.16;5065635;28;20028;-72
2023/07/06 00:40:52;;;;;;;10.38;3.60;;;;;;;-146.27;100.00;82593.09;5068749;28;20476;-71
2023/07/06 00:43:23;;;;;;;22.65;4.05;;;;;;;-146.27;100.00;82581.06;5052284;28;20023;-71
2023/07/06 00:45:55;;;;;;;12.80;3.58;;;;;;;-146.27;100.00;82603.16;5060110;28;20074;-72
2023/07/06 00:48:32;;;;;;;19.55;5.18;;;;;;;-146.27;100.00;82571.00;5075073;28;20066;-71
2023/07/06 00:51:32;;;;;;;10.32;3.40;;;;;;;-146.27;100.00;82595.13;5068434;28;20028;-73
2023/07/06 00:54:03;;;;;;;17.00;3.72;;;;;;;-146.27;100.00;82575.03;5058558;28;20025;-70
2023/07/06 00:56:36;;;;;;;11.93;3.15;;;;;;;-146.27;100.00;82605.16;5055502;28;20480;-71
2023/07/06 00:59:05;;;;;;;14.88;3.10;;;;;;;-146.27;100.00;82573.00;5068751;28;20546;-70
2023/07/06 01:01:36;;;;;;;9.43;2.85;;;;;;;-146.27;100.00;82589.09;5069778;28;20021;-70
2023/07/06 01:04:03;;;;;;;9.00;3.03;;;;;;;-146.27;100.00;82581.06;5054731;28;20244;-70
2023/07/06 01:06:34;;;;;;;20.10;3.13;;;;;;;-146.27;100.00;82573.00;5051786;28;20504;-70
2023/07/06 01:09:03;;;;;;;16.88;3.63;;;;;;;-146.27;100.00;82579.03;5068554;28;20032;-70
2023/07/06 01:11:29;;;;;;;18.77;3.33;;;;;;;-146.27;100.00;82556.94;5067143;28;20036;-69
2023/07/06 01:13:54;;;;;;;12.75;3.50;;;;;;;-146.27;100.00;82552.94;5087638;28;20089;-70
2023/07/06 01:16:32;;;;;;;13.25;3.47;;;;;;;-146.27;100.00;82560.97;5068144;28;20108;-69
2023/07/06 01:19:02;;;;;;;17.67;3.83;;;;;;;-146.27;100.00;82569.00;5055891;28;20036;-70
2023/07/06 01:21:45;;;;;;;12.25;2.72;;;;;;;-146.27;100.00;82577.03;5060952;28;20119;-70
2023/07/06 01:24:22;;;;;;;12.27;3.10;;;;;;;-146.27;100.00;82609.19;5069906;28;20024;-69
2023/07/06 01:27:00;;;;;;;18.63;5.22;;;;;;;-146.27;100.00;82585.06;5069146;28;20029;-71
2023/07/06 01:29:55;;;;;;;12.23;2.97;;;;;;;-146.27;100.00;82573.00;5070566;28;20029;-71
2023/07/06 01:32:27;;;;;;;14.38;2.92;;;;;;;-146.27;100.00;82577.03;5068863;28;20491;-70
2023/07/06 01:35:25;;;;;;;10.75;3.45;;;;;;;-146.27;100.00;82583.06;5070236;28;20056;-69
2023/07/06 01:37:51;;;;;;;14.00;3.60;;;;;;;-146.27;100.00;82542.88;5059643;28;20049;-70
2023/07/06 01:40:17;;;;;;;19.42;4.40;;;;;;;-146.27;100.00;82544.91;5059612;28;20032;-70
2023/07/06 01:42:42;;;;;;;14.90;3.40;;;;;;;-146.27;100.00;82569.00;5066769;28;20370;-70
2023/07/06 01:45:18;;;;;;;16.23;3.95;;;;;;;-146.27;100.00;82538.88;5069117;28;20027;-70
2023/07/06 01:47:55;;;;;;;15.40;4.65;;;;;;;-146.27;100.00;82554.94;5080367;28;20182;-70
2023/07/06 01:50:31;;;;;;;15.93;3.53;;;;;;;-146.27;100.00;82573.00;5053641;28;20028;-70
2023/07/06 01:53:14;;;;;;;21.27;3.95;;;;;;;-146.27;100.00;82558.97;5085187;28;20063;-70
2023/07/06 01:55:47;;;;;;;16.50;4.80;;;;;;;-146.27;100.00;82593.09;5067271;28;20078;-70
2023/07/06 01:58:43;;;;;;;26.63;6.57;;;;;;;-146.27;100.00;82567.00;5067082;28;20066;-70
2023/07/06 02:01:15;;;;;;;31.30;7.97;;;;;;;-146.27;100.00;82613.19;5054611;28;20029;-71
2023/07/06 02:03:42;;;;;;;17.55;5.90;;;;;;;-146.27;100.00;82625.25;5064211;28;20523;-70
2023/07/06 02:06:10;;;;;;;30.60;7.18;;;;;;;-146.27;100.00;82548.91;5049994;28;20025;-70
2023/07/06 02:08:41;;;;;;;24.67;6.68;;;;;;;-146.27;100.00;82589.09;5063889;28;20024;-70
2023/07/06 02:11:07;;;;;;;19.48;5.97;;;;;;;-146.27;100.00;82599.13;5056730;28;20553;-71
2023/07/06 02:13:33;;;;;;;27.65;6.90;;;;;;;-146.27;100.00;82597.13;5069475;28;20025;-70
2023/07/06 02:15:58;;;;;;;15.15;5.70;;;;;;;-146.27;100.00;82601.16;5063881;28;20087;-70
2023/07/06 02:18:24;;;;;;;27.77;7.07;;;;;;;-146.27;100.00;82585.06;5053425;28;20056;-70
2023/07/06 02:20:52;;;;;;;19.00;5.43;;;;;;;-146.27;100.00;82597.13;5068601;28;20024;-71
2023/07/06 02:23:18;;;;;;;20.52;5.00;;;;;;;-146.27;100.00;82603.16;5064698;28;20036;-70
2023/07/06 02:25:44;;;;;;;21.83;5.50;;;;;;;-146.27;100.00;82601.16;5062366;28;20431;-71
2023/07/06 02:28:10;;;;;;;22.10;5.00;;;;;;;-146.27;100.00;82635.28;5053891;28;20059;-70
2023/07/06 02:30:37;;;;;;;14.52;4.53;;;;;;;-146.27;100.00;82625.25;5060169;28;20078;-70
2023/07/06 02:33:03;;;;;;;18.83;3.88;;;;;;;-146.27;100.00;82601.16;5055633;28;20675;-70
2023/07/06 02:35:28;;;;;;;19.40;4.95;;;;;;;-146.27;100.00;82627.25;5073384;28;20032;-71
2023/07/06 02:37:54;;;;;;;15.57;4.05;;;;;;;-146.27;100.00;82625.25;5069451;28;20070;-71
2023/07/06 02:40:19;;;;;;;14.38;4.15;;;;;;;-146.27;100.00;82621.22;5074608;28;20480;-69
2023/07/06 02:42:45;;;;;;;23.10;4.60;;;;;;;-146.27;100.00;82615.22;5083408;28;20069;-70
2023/07/06 02:45:11;;;;;;;20.08;4.30;;;;;;;-146.27;100.00;82663.41;5053325;28;20472;-70
2023/07/06 02:47:37;;;;;;;16.10;4.38;;;;;;;-146.27;100.00;82625.25;5054554;28;20046;-70
2023/07/06 02:50:10;;;;;;;25.58;5.00;;;;;;;-146.27;100.00;82629.28;5060952;28;20027;-73
2023/07/06 02:52:36;;;;;;;19.67;4.22;;;;;;;-146.27;100.00;82625.25;5070904;28;20028;-71
2023/07/06 02:55:02;;;;;;;23.30;4.93;;;;;;;-146.27;100.00;82653.38;5062865;28;20039;-71
2023/07/06 02:57:28;;;;;;;18.48;3.88;;;;;;;-146.27;100.00;82633.28;5062029;28;20131;-72
2023/07/06 02:59:56;;;;;;;17.02;4.82;;;;;;;-146.27;100.00;82595.13;5073203;28;20225;-72
2023/07/06 03:02:21;;;;;;;25.83;4.43;;;;;;;-146.27;100.00;82627.25;5073238;28;20025;-72
2023/07/06 03:04:47;;;;;;;27.70;4.22;;;;;;;-146.27;100.00;82649.34;5071920;28;20029;-72
2023/07/06 03:07:12;;;;;;;25.23;4.85;;;;;;;-146.27;100.00;82605.16;5053057;28;20024;-71
2023/07/06 03:09:38;;;;;;;23.65;6.10;;;;;;;-146.27;100.00;82633.28;5052777;28;20049;-70
2023/07/06 03:12:05;;;;;;;27.25;5.32;;;;;;;-146.27;100.00;82595.13;5076521;28;20036;-71
2023/07/06 03:14:32;;;;;;;16.60;4.57;;;;;;;-146.27;100.00;82621.22;5057982;28;20024;-70
2023/07/06 03:16:58;;;;;;;20.05;4.20;;;;;;;-146.27;100.00;82651.38;5073428;28;20028;-71
2023/07/06 03:19:23;;;;;;;26.60;4.57;;;;;;;-146.27;100.00;82653.38;5073456;28;20032;-72
2023/07/06 03:21:49;;;;;;;23.08;5.28;;;;;;;-146.27;100.00;82629.28;5067998;28;20017;-71
2023/07/06 03:24:15;;;;;;;21.10;4.63;;;;;;;-146.27;100.00;82597.13;5057578;28;20033;-71
2023/07/06 03:26:41;;;;;;;15.05;4.45;;;;;;;-146.27;100.00;82631.28;5059510;28;20095;-71
2023/07/06 03:29:09;;;;;;;15.07;4.88;;;;;;;-146.27;100.00;82627.25;5052446;28;20503;-71
2023/07/06 03:31:35;;;;;;;24.55;5.03;;;;;;;-146.27;100.00;82631.28;5057573;28;20103;-71
2023/07/06 03:34:02;;;;;;;17.40;5.13;;;;;;;-146.27;100.00;82629.28;5054449;28;20113;-71
2023/07/06 03:36:28;;;;;;;18.70;4.78;;;;;;;-146.27;100.00;82635.28;5055157;28;20511;-73
2023/07/06 03:38:53;;;;;;;19.02;4.78;;;;;;;-146.27;100.00;82653.38;5070819;28;20028;-71
2023/07/06 03:41:19;;;;;;;17.67;5.13;;;;;;;-146.27;100.00;82597.13;5068416;28;20094;-71
2023/07/06 03:43:45;;;;;;;23.42;6.22;;;;;;;-146.27;100.00;82625.25;5070756;28;20086;-71
2023/07/06 03:46:12;;;;;;;20.52;4.82;;;;;;;-146.27;100.00;82681.50;5068215;28;20029;-71
2023/07/06 03:48:44;;;;;;;20.67;4.72;;;;;;;-146.27;100.00;82633.28;5052052;28;20017;-71
2023/07/06 03:51:10;;;;;;;19.25;5.05;;;;;;;-146.27;100.00;82657.41;5064570;28;20124;-71
2023/07/06 03:53:36;;;;;;;18.13;4.60;;;;;;;-146.27;100.00;82657.41;5068681;28;20512;-71
2023/07/06 03:56:06;;;;;;;13.65;4.70;;;;;;;-146.27;100.00;82641.31;5092585;28;20027;-71
2023/07/06 03:58:33;;;;;;;15.63;4.10;;;;;;;-146.27;100.00;82657.41;5092122;28;20024;-71
2023/07/06 04:00:58;;;;;;;22.85;4.88;;;;;;;-146.27;100.00;82673.47;5074492;28;20033;-71
2023/07/06 04:03:27;;;;;;;22.20;5.50;;;;;;;-146.27;100.00;82665.44;5052248;28;20429;-72
2023/07/06 04:05:54;;;;;;;19.30;5.22;;;;;;;-146.27;100.00;82675.47;5075392;28;20423;-71
2023/07/06 04:08:22;;;;;;;25.98;5.63;;;;;;;-146.27;100.00;82617.22;5066935;28;20170;-72
2023/07/06 04:10:48;;;;;;;25.88;5.93;;;;;;;-146.27;100.00;82647.34;5059062;28;20049;-72
2023/07/06 04:13:14;;;;;;;22.27;5.50;;;;;;;-146.27;100.00;82633.28;5060900;28;20081;-73
2023/07/06 04:15:44;;;;;;;23.48;4.97;;;;;;;-146.27;100.00;82637.31;5082094;28;20554;-71
2023/07/06 04:18:10;;;;;;;16.30;5.25;;;;;;;-146.27;100.00;82621.22;5071769;28;20040;-71
2023/07/06 04:20:35;;;;;;;26.95;5.40;;;;;;;-146.27;100.00;82647.34;5059155;28;20023;-71
2023/07/06 04:23:02;;;;;;;27.58;5.82;;;;;;;-146.27;100.00;82601.16;5091338;28;20376;-73
2023/07/06 04:25:30;;;;;;;25.40;5.35;;;;;;;-146.27;100.00;82621.22;5071216;28;20030;-72
2023/07/06 04:28:02;;;;;;;30.02;6.25;;;;;;;-146.27;100.00;82587.09;5061115;28;20047;-72
2023/07/06 04:30:29;;;;;;;21.77;5.68;;;;;;;-146.27;100.00;82597.13;5055361;28;20534;-71
2023/07/06 04:32:55;;;;;;;15.35;5.32;;;;;;;-146.27;100.00;82528.81;5066504;28;20785;-73
2023/07/06 04:35:22;;;;;;;25.67;6.60;;;;;;;-146.27;100.00;82544.91;5061774;28;20024;-72
2023/07/06 04:37:49;;;;;;;23.02;5.78;;;;;;;-146.27;100.00;82585.06;5072040;28;20391;-72
2023/07/06 04:40:18;;;;;;;21.17;6.60;;;;;;;-146.27;100.00;82558.97;5066741;28;20066;-72
2023/07/06 04:42:46;;;;;;;26.83;6.28;;;;;;;-146.27;100.00;82562.97;5063117;28;20032;-73
2023/07/06 04:45:12;;;;;;;19.80;5.32;;;;;;;-146.27;100.00;82581.06;5052703;28;20606;-72
2023/07/06 04:47:39;;;;;;;23.92;7.57;;;;;;;-146.27;100.00;82569.00;5076459;28;20054;-73
2023/07/06 04:50:08;;;;;;;25.90;6.40;;;;;;;-146.27;100.00;82579.03;5055928;28;20028;-72
2023/07/06 04:52:34;;;;;;;22.08;5.55;;;;;;;-146.27;100.00;82609.19;5059752;28;20024;-73
2023/07/06 04:54:59;;;;;;;20.85;5.88;;;;;;;-146.27;100.00;82581.06;5068328;28;20484;-73
2023/07/06 04:57:26;;;;;;;29.45;7.10;;;;;;;-146.27;100.00;82540.88;5069713;28;20085;-73
2023/07/06 04:59:52;;;;;;;16.90;6.15;;;;;;;-146.27;100.00;82573.00;5056579;28;20028;-73
2023/07/06 05:02:17;;;;;;;32.17;6.97;;;;;;;-146.27;100.00;82558.97;5053374;28;20116;-72
2023/07/06 05:04:43;;;;;;;28.42;6.05;;;;;;;-146.27;100.00;82564.97;5065582;28;20508;-72
2023/07/06 05:07:11;;;;;;;27.95;6.32;;;;;;;-146.27;100.00;82548.91;5059786;28;20039;-68
2023/07/06 05:09:40;;;;;;;24.95;7.30;;;;;;;-146.27;100.00;82508.72;5064128;28;20054;-73
2023/07/06 05:12:07;;;;;;;25.88;6.88;;;;;;;-146.27;100.00;82534.84;5065462;28;20072;-73
2023/07/06 05:14:34;;;;;;;24.73;6.85;;;;;;;-146.27;100.00;82556.94;5065594;28;20037;-73
2023/07/06 05:17:00;;;;;;;22.70;7.53;;;;;;;-146.27;100.00;82528.81;5065929;28;20039;-72
2023/07/06 05:19:27;;;;;;;26.27;6.93;;;;;;;-146.27;100.00;82486.63;5050465;28;20076;-72
2023/07/06 05:21:55;;;;;;;22.95;6.65;;;;;;;-146.27;100.00;82488.66;5062399;28;20069;-73
2023/07/06 05:24:21;;;;;;;24.45;7.15;;;;;;;-146.27;100.00;82492.66;5055040;28;20107;-72
2023/07/06 05:26:47;;;;;;;30.00;7.30;;;;;;;-146.27;100.00;82504.72;5058126;28;20024;-73
2023/07/06 05:29:12;;;;;;;23.75;6.38;;;;;;;-146.27;100.00;82524.81;5068023;28;20036;-73
2023/07/06 05:31:37;;;;;;;34.03;7.28;;;;;;;-146.27;100.00;82474.59;5066842;28;20032;-73
2023/07/06 05:34:03;;;;;;;18.75;6.18;;;;;;;-146.27;100.00;82464.53;5068362;28;20029;-73
2023/07/06 05:36:28;;;;;;;24.13;7.22;;;;;;;-146.27;100.00;82456.50;5061942;28;20043;-73
2023/07/06 05:38:54;;;;;;;28.77;7.05;;;;;;;-146.27;100.00;82452.47;5068103;28;20059;-73
2023/07/06 05:41:19;;;;;;;28.15;6.95;;;;;;;-146.27;100.00;82448.47;5068874;28;20028;-73
2023/07/06 05:43:44;;;;;;;30.08;6.75;;;;;;;-146.27;100.00;82384.19;5068425;28;20089;-74
2023/07/06 05:46:10;;;;;;;20.02;6.15;;;;;;;-146.27;100.00;82448.47;5069496;28;20050;-74
2023/07/06 05:48:35;;;;;;;18.50;6.53;;;;;;;-146.27;100.00;82396.25;5081927;28;20051;-74
2023/07/06 05:51:01;;;;;;;17.98;6.18;;;;;;;-146.27;100.00;82416.31;5086047;28;20387;-73
2023/07/06 05:53:27;;;;;;;23.13;6.60;;;;;;;-146.27;100.00;82368.13;5049553;28;20379;-74
2023/07/06 05:55:53;;;;;;;23.35;6.53;;;;;;;-146.27;100.00;82376.16;5049104;28;20029;-74
2023/07/06 05:58:18;;;;;;;20.20;5.85;;;;;;;-146.27;100.00;82344.00;5060327;28;20026;-74
2023/07/06 06:00:45;;;;;;;21.77;6.15;;;;;;;-146.27;100.00;82317.91;5069726;28;20070;-73
2023/07/06 06:03:11;;;;;;;29.70;8.18;;;;;;;-146.27;100.00;82301.81;5069541;28;20046;-73
2023/07/06 06:05:37;;;;;;;23.45;6.80;;;;;;;-146.27;100.00;82311.88;5086716;28;20123;-73
2023/07/06 06:08:02;;;;;;;80.72;18.67;;;;;;;-146.27;100.00;82289.78;5066335;28;20099;-73
2023/07/06 06:10:31;;;;;;;90.80;18.52;;;;;;;-146.27;100.00;82319.91;5093661;28;20101;-73
2023/07/06 06:12:57;;;;;;;26.55;8.95;;;;;;;-146.27;100.00;82295.81;5094003;28;20028;-73
2023/07/06 06:15:23;;;;;;;27.90;7.72;;;;;;;-146.27;100.00;82271.69;5093977;28;20035;-73
2023/07/06 06:17:50;;;;;;;20.17;6.80;;;;;;;-146.27;100.00;82285.75;5086722;28;20017;-73
2023/07/06 06:20:16;;;;;;;24.90;6.93;;;;;;;-146.27;100.00;82251.59;5091355;28;20024;-74
2023/07/06 06:22:41;;;;;;;26.23;7.03;;;;;;;-146.27;100.00;82275.72;5093844;28;20020;-73
2023/07/06 06:25:07;;;;;;;22.33;6.45;;;;;;;-146.27;100.00;82241.56;5074418;28;20029;-73
2023/07/06 06:27:33;;;;;;;26.02;6.55;;;;;;;-146.27;100.00;82247.59;5055242;28;20028;-72
2023/07/06 06:29:58;;;;;;;21.13;5.40;;;;;;;-146.27;99.59;82135.09;5073395;28;20457;-72
2023/07/06 06:32:25;;;;;;;12.88;4.78;;;;;;;-146.27;98.55;82143.13;5073307;28;20071;-72
2023/07/06 06:34:50;;;;;;;28.50;6.75;;;;;;;-146.27;98.47;82111.00;5071079;28;20023;-74
2023/07/06 06:37:16;;;;;;;12.50;4.88;;;;;;;-146.27;96.58;82181.31;5052885;28;20021;-74
2023/07/06 06:39:42;;;;;;;15.30;4.47;;;;;;;-146.27;96.49;82131.09;5072934;28;20103;-73
2023/07/06 06:42:08;;;;;;;15.98;4.50;;;;;;;-146.27;95.50;82119.03;5073168;28;20033;-74
2023/07/06 06:44:35;;;;;;;19.70;4.00;;;;;;;-146.27;95.79;82050.75;5065331;28;20241;-73
2023/07/06 06:47:01;;;;;;;6.18;3.40;;;;;;;-146.27;93.81;82090.91;5053056;28;20032;-74
2023/07/06 06:49:27;;;;;;;10.80;3.33;;;;;;;-146.27;93.52;82066.81;5065520;28;20463;-74
2023/07/06 06:51:52;;;;;;;14.20;3.38;;;;;;;-146.27;92.98;82066.81;5053104;28;20052;-74
2023/07/06 06:54:19;;;;;;;13.27;3.10;;;;;;;-146.27;93.25;82119.03;5052805;28;20032;-74
2023/07/06 06:56:44;;;;;;;12.85;3.25;;;;;;;-146.27;93.50;82078.84;5052901;28;20115;-74
2023/07/06 06:59:11;;;;;;;14.07;3.85;;;;;;;-146.27;93.09;82050.75;5065972;28;20107;-74
2023/07/06 07:01:38;;;;;;;11.60;2.58;;;;;;;-146.27;92.95;82020.59;5072539;28;20502;-72
2023/07/06 07:04:03;;;;;;;14.00;3.30;;;;;;;-146.27;89.72;82056.75;5060356;28;20053;-74
2023/07/06 07:06:30;;;;;;;9.02;2.53;;;;;;;-146.27;88.53;82072.84;5052881;28;20115;-73
2023/07/06 07:08:57;;;;;;;10.55;2.63;;;;;;;-146.27;88.61;82072.84;5064387;28;20456;-73
2023/07/06 07:11:23;;;;;;;11.38;2.63;;;;;;;-146.27;89.07;82036.69;5072611;28;20070;-75
2023/07/06 07:13:50;;;;;;;12.15;2.60;;;;;;;-146.27;88.26;82068.81;5072207;28;20100;-74
2023/07/06 07:16:16;;;;;;;9.57;3.00;;;;;;;-146.27;88.84;82050.75;5072103;28;20021;-73
2023/07/06 07:18:45;;;;;;;18.05;4.18;;;;;;;-146.27;87.97;82068.81;5080662;28;20050;-73
2023/07/06 07:21:12;;;;;;;21.58;3.40;;;;;;;-146.27;87.81;81994.50;5055425;28;20052;-72
2023/07/06 07:23:43;;;;;;;9.50;2.80;;;;;;;-146.27;87.46;82006.53;5052417;28;20452;-73
2023/07/06 07:26:10;;;;;;;6.13;2.33;;;;;;;-146.27;84.33;81982.44;5052282;28;20025;-72
2023/07/06 07:28:37;;;;;;;8.15;1.98;;;;;;;-146.27;82.58;81990.47;5066936;28;20060;-73
2023/07/06 07:31:03;;;;;;;12.00;2.28;;;;;;;-146.27;82.84;81918.16;5092819;28;20020;-73
2023/07/06 07:33:28;;;;;;;9.45;2.20;;;;;;;-146.27;80.76;81970.41;5092639;28;20043;-74
2023/07/06 07:35:58;;;;;;;8.90;2.22;;;;;;;-146.27;79.99;81968.38;5084018;28;20025;-74
2023/07/06 07:38:24;;;;;;;10.35;2.00;;;;;;;-146.27;81.23;81930.22;5065395;28;20054;-73
2023/07/06 07:40:56;;;;;;;8.90;1.95;;;;;;;-146.27;82.39;81966.38;5070501;28;20025;-72
2023/07/06 07:43:27;;;;;;;11.73;2.13;;;;;;;-146.27;81.95;81952.31;5071943;28;20046;-72
2023/07/06 07:46:03;;;;;;;7.15;2.38;;;;;;;-146.27;83.23;81948.31;5071733;28;20468;-72
2023/07/06 07:48:32;;;;;;;10.43;2.47;;;;;;;-146.27;83.38;81954.31;5070413;28;20383;-71
2023/07/06 07:51:01;;;;;;;7.63;2.03;;;;;;;-146.27;81.56;81946.28;5072084;28;20023;-71
2023/07/06 07:53:27;;;;;;;4.45;1.77;;;;;;;-146.27;81.11;81886.03;5071852;28;20074;-71
2023/07/06 07:55:56;;;;;;;7.28;2.05;;;;;;;-146.27;81.21;81869.97;5063094;28;20040;-71
2023/07/06 07:58:23;;;;;;;9.20;1.90;;;;;;;-146.27;80.70;81789.63;5067290;28;20016;-71
2023/07/06 08:00:55;;;;;;;18.25;3.15;;;;;;;-146.27;79.59;81761.50;5071375;28;20020;-72
2023/07/06 08:03:23;;;;;;;7.82;1.95;;;;;;;-146.27;79.19;81851.88;5071107;28;20516;-72
2023/07/06 08:05:52;;;;;;;10.65;2.20;;;;;;;-146.27;80.84;81793.66;5071008;28;20024;-72
2023/07/06 08:08:18;;;;;;;10.15;2.30;;;;;;;-146.27;81.38;81767.53;5062950;28;20396;-72
2023/07/06 08:10:45;;;;;;;10.38;2.15;;;;;;;-146.27;81.49;81797.66;5073188;28;20041;-72
2023/07/06 08:13:11;;;;;;;8.18;2.50;;;;;;;-146.27;81.45;81739.41;5082173;28;20476;-74
2023/07/06 08:15:37;;;;;;;9.63;2.53;;;;;;;-146.27;81.35;81721.34;5085577;28;20033;-69
2023/07/06 08:18:05;;;;;;;11.20;3.00;;;;;;;-146.27;80.43;81689.19;5072472;28;20032;-69
2023/07/06 08:20:32;;;;;;;6.90;2.65;;;;;;;-146.27;78.00;81703.25;5071829;28;20028;-67
2023/07/06 08:23:01;;;;;;;7.18;2.08;;;;;;;-146.27;76.52;81829.78;5070793;28;20048;-68
2023/07/06 08:25:28;;;;;;;8.00;2.28;;;;;;;-146.27;77.10;81805.69;5062596;28;20017;-68
2023/07/06 08:27:54;;;;;;;7.28;2.20;;;;;;;-146.27;77.53;81829.78;5069000;28;20025;-68
2023/07/06 08:30:21;;;;;;;9.90;2.28;;;;;;;-146.27;78.62;81855.91;5073208;28;20074;-68
2023/07/06 08:32:50;;;;;;;6.95;2.10;;;;;;;-146.27;78.41;81855.91;5079853;28;20102;-68
2023/07/06 08:35:17;;;;;;;3.90;1.80;;;;;;;-146.27;78.16;81853.91;5080060;28;20073;-68
2023/07/06 08:37:43;;;;;;;8.20;2.30;;;;;;;-146.27;78.37;81851.88;5080086;28;20369;-71
2023/07/06 08:40:17;;;;;;;7.25;1.85;;;;;;;-146.27;78.27;81886.03;5084121;28;20028;-69
2023/07/06 08:42:45;;;;;;;14.98;3.00;;;;;;;-146.27;79.20;81898.09;5071296;28;20466;-69
2023/07/06 08:45:21;;;;;;;9.25;2.20;;;;;;;-146.27;79.23;81900.09;5069893;28;20028;-69
2023/07/06 08:47:48;;;;;;;9.45;2.65;;;;;;;-146.27;79.43;81882.00;5070165;28;20028;-71
2023/07/06 08:50:20;;;;;;;8.57;2.30;;;;;;;-146.27;79.88;81912.16;5073983;28;20024;-70
2023/07/06 08:52:46;;;;;;;6.97;1.75;;;;;;;-146.27;80.26;81900.09;5070789;28;20258;-73
2023/07/06 08:55:13;;;;;;;15.10;2.90;;;;;;;-146.27;78.74;81902.09;5056771;28;20100;-73
2023/07/06 08:57:39;;;;;;;16.05;3.00;;;;;;;-146.27;79.50;81920.19;5066994;28;20150;-73
2023/07/06 09:00:22;;;;;;;16.00;2.47;;;;;;;-146.27;79.58;81898.09;5068702;28;20120;-73
2023/07/06 09:02:55;;;;;;;8.73;2.00;;;;;;;-146.27;79.03;81924.19;5070070;28;20163;-73
2023/07/06 09:05:21;;;;;;;4.88;1.70;;;;;;;-146.27;79.15;81865.94;5070074;28;20027;-73
2023/07/06 09:07:48;;;;;;;8.25;2.13;;;;;;;-146.27;79.15;81890.06;5070013;28;20082;-72
2023/07/06 09:10:20;;;;;;;5.50;2.00;;;;;;;-146.27;79.41;81900.09;5069365;28;20396;-76
2023/07/06 09:12:47;;;;;;;7.05;1.80;;;;;;;-146.27;79.98;81904.13;5069034;28;20141;-73
2023/07/06 09:15:16;;;;;;;6.05;1.85;;;;;;;-146.27;79.64;81873.97;5069381;28;20167;-72
2023/07/06 09:17:47;;;;;;;7.68;2.05;;;;;;;-146.27;79.72;81880.00;5069835;28;20048;-74
2023/07/06 09:20:15;;;;;;;4.95;2.22;;;;;;;-146.27;76.61;81869.97;5067337;28;20036;-73
2023/07/06 09:22:41;;;;;;;6.57;2.40;;;;;;;-146.27;75.83;81849.88;5071652;28;20551;-73
2023/07/06 09:25:27;;;;;;;8.07;2.22;;;;;;;-146.27;74.58;81753.47;5069636;28;20033;-73
2023/07/06 09:27:56;;;;;;;3.33;1.40;;;;;;;-146.27;72.61;81775.56;5069011;28;20031;-73
2023/07/06 09:30:30;;;;;;;5.75;1.48;;;;;;;-146.27;72.36;81685.19;5069630;28;20388;-73
2023/07/06 09:33:18;;;;;;;5.63;1.52;;;;;;;-146.27;70.40;81620.91;5070786;28;20024;-74
2023/07/06 09:35:44;;;;;;;3.47;1.05;;;;;;;-146.27;63.39;81596.81;5069620;28;20031;-73
2023/07/06 09:38:14;;;;;;;4.30;1.80;;;;;;;-146.27;58.20;81540.56;5070134;28;20097;-73
2023/07/06 09:40:43;;;;;;;5.20;1.33;;;;;;;-146.27;58.54;81610.88;5065278;28;20020;-73
2023/07/06 09:43:29;;;;;;;5.88;1.60;;;;;;;-146.27;61.05;81544.59;5068081;28;20484;-74
2023/07/06 09:45:59;;;;;;;2.13;0.98;;;;;;;-146.27;52.48;81534.56;5069593;28;20025;-73
2023/07/06 09:48:27;;;;;;;2.30;0.90;;;;;;;-146.27;50.38;81560.66;5070229;28;20043;-73
2023/07/06 09:51:13;;;;;;;3.03;0.95;;;;;;;-146.27;48.98;81554.63;5070018;28;20495;-73
2023/07/06 09:54:11;;;;;;;5.43;1.02;;;;;;;-146.27;52.18;81628.94;5072077;28;20019;-73
2023/07/06 09:56:37;;;;;;;2.65;1.17;;;;;;;-146.27;53.54;81600.84;5089721;28;20044;-72
2023/07/06 09:59:03;;;;;;;4.30;1.02;;;;;;;-146.27;55.54;81562.66;5089971;28;20095;-74
2023/07/06 10:01:48;;;;;;;2.35;1.00;;;;;;;-146.27;49.10;81584.75;5070064;28;20035;-71
2023/07/06 10:04:42;;;;;;;3.67;1.13;;;;;;;-146.27;48.87;81528.53;5064030;28;20027;-73
2023/07/06 10:07:30;;;;;;;6.35;1.00;;;;;;;-146.27;49.98;81490.38;5090129;28;20035;-71
2023/07/06 10:10:23;;;;;;;1.63;0.70;;;;;;;-146.27;49.24;81408.03;5051587;28;20519;-74
2023/07/06 10:13:04;;;;;;;2.72;0.63;;;;;;;-146.27;45.12;81440.16;5069933;28;20637;-73
2023/07/06 10:15:53;;;;;;;1.48;0.68;;;;;;;-146.27;46.74;81357.81;5067240;28;20032;-73
2023/07/06 10:18:30;;;;;;;1.50;0.70;;;;;;;-146.27;44.86;81309.63;5068198;28;20472;-72
2023/07/06 10:21:11;;;;;;;2.85;0.80;;;;;;;-146.27;42.38;81327.69;5062845;28;20024;-72
2023/07/06 10:24:12;;;;;;;1.58;0.70;;;;;;;-146.27;42.18;81371.88;5066643;28;20059;-72
2023/07/06 10:26:48;;;;;;;4.35;0.63;;;;;;;-146.27;42.89;81355.81;5067516;28;20017;-72
2023/07/06 10:29:18;;;;;;;1.63;0.68;;;;;;;-146.27;41.73;81331.72;5067863;28;20088;-72
2023/07/06 10:31:53;;;;;;;1.77;0.50;;;;;;;-146.27;42.37;81299.59;5064215;28;20103;-72
2023/07/06 10:34:31;;;;;;;3.50;0.80;;;;;;;-146.27;42.53;81241.34;5066084;28;20025;-72
2023/07/06 10:37:01;;;;;;;2.30;0.77;;;;;;;-146.27;41.78;81155.00;5066955;28;20063;-73
2023/07/06 10:39:29;;;;;;;2.80;0.68;;;;;;;-146.27;41.84;81223.25;5078792;28;20024;-72
2023/07/06 10:42:03;;;;;;;4.05;0.80;;;;;;;-146.27;41.09;81215.22;5067578;28;20090;-72
2023/07/06 10:44:43;;;;;;;3.90;0.70;;;;;;;-146.27;41.74;81100.75;5067437;28;20028;-72
2023/07/06 10:47:28;;;;;;;1.40;0.80;;;;;;;-146.27;38.99;81229.28;5066461;28;20036;-71
2023/07/06 10:50:19;;;;;;;3.33;0.70;;;;;;;-146.27;38.91;81122.84;5066320;28;20036;-71
2023/07/06 10:53:25;;;;;;;1.48;0.57;;;;;;;-146.27;39.71;81144.94;5065998;28;20031;-72
2023/07/06 10:55:58;;;;;;;6.03;0.80;;;;;;;-146.27;41.27;81106.78;5066306;28;20025;-74
2023/07/06 10:58:32;;;;;;;1.70;0.50;;;;;;;-146.27;39.62;81086.72;5072156;28;20021;-73
2023/07/06 11:01:03;;;;;;;4.38;0.77;;;;;;;-146.27;38.94;81094.75;5067923;28;20024;-75
2023/07/06 11:03:31;;;;;;;1.38;0.90;;;;;;;-146.27;38.72;81078.69;5069028;28;20029;-75
2023/07/06 11:06:41;;;;;;;2.03;0.73;;;;;;;-146.27;38.07;81189.13;5070862;28;20028;-72
2023/07/06 11:09:09;;;;;;;3.45;0.75;;;;;;;-146.27;38.15;81106.78;5064432;28;20036;-72
2023/07/06 11:11:42;;;;;;;3.15;0.88;;;;;;;-146.27;37.66;81126.88;5065986;28;20617;-72
2023/07/06 11:14:33;;;;;;;3.78;0.50;;;;;;;-146.27;38.43;81112.81;5072197;28;20055;-72
2023/07/06 11:17:18;;;;;;;1.48;0.60;;;;;;;-146.27;38.11;81026.47;5075124;28;20056;-71
2023/07/06 11:19:59;;;;;;;2.05;0.60;;;;;;;-146.27;38.15;80970.25;5085137;28;20024;-73